LMML Airport Information

Runway Information
Runway 05 Length 7799 ft width 148 ft
Elevation 297 ft Threshold 0 ft Heading 56
Runway 23 Length 7799 ft Width 148 ft
Elevation 247 ft Threshold 0 ft Heading 236
Runway 13 Length 11627 ft width 197 ft
Elevation 256 ft Threshold 0 ft Heading 135
Runway 31 Length 11627 ft Width 197 ft
Elevation 230 ft Threshold 620 ft Heading 315
Airport Frequencies
Type APP Name APP Frequency 128.15 MHZ
Type Distance R Name Frequency 130.975 MHZ
Type Ground Name Ground Frequency 121.6 MHZ
Type Leaving Name Frequency 123.625 MHZ
Type Runway Name Runway Frequency 138.1 MHZ
Type Volmet Name Frequency 126.8 MHZ
Type Weather Name WX Frequency 127.4 MHZ
Airport Navaids
Type DME Name Malta Frequency 110500 KHZ
Type DME Name Luqa Frequency 109700 KHZ
Type NDB Name Luqa Frequency 416 KHZ
Type NDB Name Malta Frequency 395 KHZ
Airport Weather Information & NOTAM
ADDS - METARS form results

(0942 UTC 24 August 2019)
Data provider http://aviationweather.gov/metar/data/
 
METAR text: LMML 240915Z 35004KT 310V010 9999 FEW028 31/20 Q1017 NOSIG
Conditions at: LMML (LUQA/MALTA , MT) observed 0915 UTC 24 August 2019
Temperature: 31.0°C (88°F)
Dewpoint: 20.0°C (68°F) [RH = 52%]
Pressure (altimeter): 30.03 inches Hg (1017.0 mb)
Winds: from the N (350 degrees) at 5 MPH (4 knots; 2.1 m/s)
Visibility: 6 or more miles (10+ km)
Ceiling: at least 12,000 feet AGL
Clouds: few clouds at 2800 feet AGL
Weather: no significant weather observed at this time

METAR text: LMML 240845Z 03008KT 9999 FEW032 30/19 Q1017 NOSIG
Conditions at: LMML (LUQA/MALTA , MT) observed 0845 UTC 24 August 2019
Temperature: 30.0°C (86°F)
Dewpoint: 19.0°C (66°F) [RH = 52%]
Pressure (altimeter): 30.03 inches Hg (1017.0 mb)
Winds: from the NNE (30 degrees) at 9 MPH (8 knots; 4.1 m/s)
Visibility: 6 or more miles (10+ km)
Ceiling: at least 12,000 feet AGL
Clouds: few clouds at 3200 feet AGL
Weather: no significant weather observed at this time

Forecast for: LMML (LUQA/MALTA , MT)
Text: TAF LMML 240500Z 2406/2506 31010KT 9999 FEW020
Forecast period: 0600 UTC 24 August 2019 to 0600 UTC 25 August 2019
Forecast type: FROM: standard forecast or significant change
Winds: from the NW (310 degrees) at 12 MPH (10 knots; 5.1 m/s)
Visibility: 6 or more miles 10+ km)
Ceiling: at least 12,000 feet AGL
Clouds: few clouds at 2000 feet AGL
Weather: no significant weather forecast for this period